Time;durP1;ratioP1;P1;durP2;ratioP2;P2;SDS_P1;SDS_P2;PMS_P1;PMS_P2;Temp;Humidity;BMP_temperature;BMP_pressure;BME280_temperature;BME280_humidity;BME280_pressure;Samples;Min_cycle;Max_cycle;Signal;HPM_P1;HPM_P2
2021/04/05 00:00:52;;;;;;;18.73;16.73;;;6.20;99.90;;;;;;5076144;28;20516;-76
2021/04/05 00:03:20;;;;;;;18.33;16.37;;;6.20;99.90;;;;;;5074663;28;20926;-77
2021/04/05 00:05:47;;;;;;;17.30;15.50;;;6.20;99.90;;;;;;5081139;28;20444;-76
2021/04/05 00:08:15;;;;;;;17.67;14.43;;;6.20;99.90;;;;;;5094917;28;20455;-77
2021/04/05 00:10:45;;;;;;;16.40;13.63;;;6.20;99.90;;;;;;5090425;28;20536;-76
2021/04/05 00:13:14;;;;;;;16.40;14.67;;;6.20;99.90;;;;;;5074766;28;20441;-76
2021/04/05 00:15:42;;;;;;;15.17;13.53;;;6.20;99.90;;;;;;5076280;28;20441;-77
2021/04/05 00:18:10;;;;;;;17.07;13.60;;;6.20;99.90;;;;;;5076231;28;20429;-77
2021/04/05 00:20:40;;;;;;;17.50;13.53;;;6.20;99.90;;;;;;5074523;28;20498;-76
2021/04/05 00:23:07;;;;;;;15.60;13.00;;;6.20;99.90;;;;;;5075692;28;20432;-76
2021/04/05 00:25:35;;;;;;;15.47;11.83;;;6.20;99.90;;;;;;5077824;28;20484;-77
2021/04/05 00:28:02;;;;;;;18.63;13.30;;;6.20;99.90;;;;;;5069573;28;20477;-77
2021/04/05 00:30:31;;;;;;;14.00;12.50;;;6.20;99.90;;;;;;5054498;28;20516;-77
2021/04/05 00:32:59;;;;;;;14.60;13.10;;;6.20;99.90;;;;;;5054447;28;20484;-76
2021/04/05 00:35:28;;;;;;;18.73;13.20;;;6.30;99.90;;;;;;5054193;28;20446;-76
2021/04/05 00:37:58;;;;;;;15.13;12.40;;;6.30;99.90;;;;;;5054523;28;20457;-76
2021/04/05 00:40:29;;;;;;;14.43;11.87;;;6.30;99.90;;;;;;5057909;28;20494;-77
2021/04/05 00:42:57;;;;;;;15.67;12.53;;;6.30;99.90;;;;;;5094655;28;20439;-76
2021/04/05 00:45:25;;;;;;;14.87;12.23;;;6.30;99.90;;;;;;5094811;28;20527;-76
2021/04/05 00:47:53;;;;;;;16.30;11.30;;;6.30;99.90;;;;;;5088724;28;20967;-77
2021/04/05 00:50:30;;;;;;;14.43;12.40;;;6.30;99.90;;;;;;5088181;28;20542;-76
2021/04/05 00:52:58;;;;;;;16.47;11.70;;;6.30;99.90;;;;;;5095972;28;20412;-76
2021/04/05 00:55:26;;;;;;;17.37;13.10;;;6.30;99.90;;;;;;5094480;28;20527;-76
2021/04/05 00:57:55;;;;;;;18.00;12.83;;;6.30;99.90;;;;;;5094104;28;20452;-76
2021/04/05 01:00:34;;;;;;;18.40;12.73;;;6.30;99.90;;;;;;5095330;28;20894;-77
2021/04/05 01:03:01;;;;;;;15.00;11.77;;;6.30;99.90;;;;;;5095289;28;20474;-76
2021/04/05 01:05:29;;;;;;;16.17;12.10;;;6.30;99.90;;;;;;5095269;28;20441;-77
2021/04/05 01:07:56;;;;;;;17.70;13.70;;;6.30;99.90;;;;;;5080219;28;20448;-76
2021/04/05 01:10:25;;;;;;;15.33;11.80;;;6.30;99.90;;;;;;5076663;28;20501;-77
2021/04/05 01:12:53;;;;;;;16.73;12.63;;;6.30;99.90;;;;;;5093819;28;20451;-77
2021/04/05 01:15:21;;;;;;;14.60;11.93;;;6.30;99.90;;;;;;5095413;28;20552;-76
2021/04/05 01:17:50;;;;;;;13.17;11.53;;;6.30;99.90;;;;;;5093686;28;20445;-76
2021/04/05 01:20:19;;;;;;;16.40;12.13;;;6.30;99.90;;;;;;5092998;28;20451;-76
2021/04/05 01:22:48;;;;;;;18.83;13.73;;;6.30;99.90;;;;;;5075107;28;20441;-76
2021/04/05 01:25:17;;;;;;;15.03;11.27;;;6.40;99.90;;;;;;5074695;28;20437;-76
2021/04/05 01:27:46;;;;;;;15.00;12.20;;;6.40;99.90;;;;;;5082485;28;20452;-76
2021/04/05 01:30:28;;;;;;;16.37;12.00;;;6.40;99.90;;;;;;5087615;28;20527;-77
2021/04/05 01:33:02;;;;;;;17.57;11.60;;;6.40;99.90;;;;;;5073520;28;20840;-76
2021/04/05 01:35:29;;;;;;;17.73;11.60;;;6.40;99.90;;;;;;5074476;28;20430;-77
2021/04/05 01:37:57;;;;;;;16.77;12.27;;;6.50;99.90;;;;;;5073142;28;20532;-76
2021/04/05 01:40:25;;;;;;;16.27;11.60;;;6.50;99.90;;;;;;5073058;28;20473;-76
2021/04/05 01:42:52;;;;;;;16.70;12.40;;;6.50;99.90;;;;;;5071905;28;20992;-76
2021/04/05 01:45:19;;;;;;;15.90;11.80;;;6.60;99.90;;;;;;5073061;28;20256;-75
2021/04/05 01:47:46;;;;;;;18.50;13.17;;;6.60;99.90;;;;;;5071847;28;20988;-77
2021/04/05 01:50:15;;;;;;;17.87;12.63;;;6.60;99.90;;;;;;5075945;28;20522;-77
2021/04/05 01:52:43;;;;;;;18.30;13.67;;;6.60;99.90;;;;;;5076009;28;20491;-77
2021/04/05 01:55:14;;;;;;;22.80;13.40;;;6.60;99.90;;;;;;5085110;28;20468;-77
2021/04/05 01:57:42;;;;;;;17.70;12.80;;;6.60;99.90;;;;;;5072434;28;20452;-76
2021/04/05 02:00:13;;;;;;;19.17;13.23;;;6.60;99.90;;;;;;5072919;28;20890;-76
2021/04/05 02:02:41;;;;;;;19.13;13.00;;;6.60;99.90;;;;;;5074377;28;20428;-76
2021/04/05 02:05:09;;;;;;;20.97;14.20;;;6.60;99.90;;;;;;5074256;28;20425;-77
2021/04/05 02:07:37;;;;;;;16.60;13.27;;;6.60;99.90;;;;;;5073758;28;20941;-76
2021/04/05 02:10:08;;;;;;;19.77;13.77;;;6.70;99.90;;;;;;5073994;28;20496;-76
2021/04/05 02:12:37;;;;;;;18.77;14.23;;;6.70;99.90;;;;;;5070769;28;20449;-77
2021/04/05 02:15:12;;;;;;;19.63;14.27;;;6.70;99.90;;;;;;5074215;28;20524;-76
2021/04/05 02:17:43;;;;;;;20.23;14.30;;;6.70;99.90;;;;;;5074076;28;20831;-76
2021/04/05 02:20:13;;;;;;;21.13;14.70;;;6.70;99.90;;;;;;5072613;28;20465;-77
2021/04/05 02:22:42;;;;;;;19.40;14.97;;;6.70;99.90;;;;;;5081303;28;20505;-76
2021/04/05 02:25:13;;;;;;;16.13;14.43;;;6.80;99.90;;;;;;5093224;28;20456;-76
2021/04/05 02:27:43;;;;;;;22.23;15.87;;;6.80;99.90;;;;;;5073936;28;20468;-76
2021/04/05 02:30:21;;;;;;;20.63;14.60;;;6.80;99.90;;;;;;5053570;28;20501;-76
2021/04/05 02:32:51;;;;;;;17.83;13.80;;;6.80;99.90;;;;;;5052449;28;20442;-76
2021/04/05 02:35:18;;;;;;;24.77;15.40;;;6.80;99.90;;;;;;5054050;28;20430;-77
2021/04/05 02:37:46;;;;;;;16.47;13.83;;;6.80;99.90;;;;;;5053701;28;20438;-76
2021/04/05 02:40:14;;;;;;;21.43;14.37;;;6.90;99.90;;;;;;5057682;28;20467;-77
2021/04/05 02:42:43;;;;;;;25.23;14.63;;;6.90;99.90;;;;;;5092628;28;20445;-76
2021/04/05 02:45:12;;;;;;;17.43;14.27;;;6.90;99.90;;;;;;5094374;28;20432;-77
2021/04/05 02:47:40;;;;;;;20.10;13.90;;;6.90;99.90;;;;;;5082889;28;20506;-77
2021/04/05 02:50:09;;;;;;;21.30;14.90;;;6.90;99.90;;;;;;5080876;28;20471;-77
2021/04/05 02:52:37;;;;;;;21.50;15.60;;;6.90;99.90;;;;;;5092014;28;20497;-76
2021/04/05 02:55:07;;;;;;;19.20;15.43;;;6.90;99.90;;;;;;5093998;28;20891;-76
2021/04/05 02:57:36;;;;;;;20.27;15.40;;;6.90;99.90;;;;;;5073821;28;20769;-76
2021/04/05 03:00:09;;;;;;;20.30;16.47;;;6.90;99.90;;;;;;5072334;28;20554;-77
2021/04/05 03:02:37;;;;;;;22.77;16.00;;;7.00;99.90;;;;;;5072449;28;20434;-77
2021/04/05 03:05:06;;;;;;;26.93;16.50;;;7.00;99.90;;;;;;5073758;28;20444;-76
2021/04/05 03:07:34;;;;;;;21.13;16.70;;;7.00;99.90;;;;;;5073341;28;20494;-76
2021/04/05 03:10:02;;;;;;;24.33;16.63;;;7.00;99.90;;;;;;5073676;28;20465;-76
2021/04/05 03:12:29;;;;;;;24.23;15.47;;;7.00;99.90;;;;;;5075977;28;20448;-76
2021/04/05 03:14:58;;;;;;;18.73;15.90;;;7.10;99.90;;;;;;5076139;28;20440;-77
2021/04/05 03:17:28;;;;;;;28.87;17.57;;;7.10;99.90;;;;;;5076043;28;20441;-76
2021/04/05 03:19:56;;;;;;;21.23;16.23;;;7.10;99.90;;;;;;5075708;28;20884;-76
2021/04/05 03:22:24;;;;;;;22.00;15.77;;;7.10;99.90;;;;;;5085184;28;20454;-76
2021/04/05 03:24:51;;;;;;;22.83;16.10;;;7.10;99.90;;;;;;5090546;28;20852;-77
2021/04/05 03:27:18;;;;;;;22.47;16.03;;;7.10;99.90;;;;;;5094516;28;20464;-76
2021/04/05 03:29:47;;;;;;;19.97;16.20;;;7.10;99.90;;;;;;5096050;28;20529;-76
2021/04/05 03:32:16;;;;;;;23.20;17.47;;;7.20;99.90;;;;;;5097239;28;20444;-76
2021/04/05 03:34:52;;;;;;;22.30;16.23;;;7.10;99.90;;;;;;5097642;28;20440;-76
2021/04/05 03:37:21;;;;;;;21.37;17.20;;;7.10;99.90;;;;;;5095802;28;20500;-76
2021/04/05 03:39:49;;;;;;;24.08;17.90;;;7.10;99.90;;;;;;5095513;28;20485;-76
2021/04/05 03:42:23;;;;;;;21.40;16.13;;;7.10;99.90;;;;;;5095753;28;20736;-75
2021/04/05 03:44:58;;;;;;;24.40;17.83;;;7.10;99.90;;;;;;5097299;28;20420;-76
2021/04/05 03:47:32;;;;;;;25.80;17.30;;;7.10;99.90;;;;;;5095871;28;20435;-76
2021/04/05 03:50:10;;;;;;;27.92;19.73;;;7.10;99.90;;;;;;5096229;28;20441;-76
2021/04/05 03:52:44;;;;;;;23.80;17.87;;;7.10;99.90;;;;;;5096268;28;20225;-76
2021/04/05 03:55:13;;;;;;;25.20;17.57;;;7.10;99.90;;;;;;5095411;28;20451;-77
2021/04/05 03:57:47;;;;;;;28.10;17.63;;;7.10;99.90;;;;;;5075380;28;20445;-76
2021/04/05 04:00:18;;;;;;;20.63;18.00;;;7.10;99.90;;;;;;5076261;28;21014;-76
2021/04/05 04:02:50;;;;;;;24.70;18.80;;;7.00;99.90;;;;;;5076727;28;20926;-75
2021/04/05 04:05:24;;;;;;;25.30;18.90;;;7.00;99.90;;;;;;5074870;28;20468;-75
2021/04/05 04:07:54;;;;;;;22.60;18.67;;;7.00;99.90;;;;;;5076570;28;20471;-75
2021/04/05 04:10:23;;;;;;;24.90;17.77;;;7.00;99.90;;;;;;5074463;28;20470;-76
2021/04/05 04:12:54;;;;;;;24.20;17.73;;;7.00;99.90;;;;;;5054627;28;20815;-76
2021/04/05 04:15:22;;;;;;;27.87;18.80;;;7.00;99.90;;;;;;5073198;28;20452;-76
2021/04/05 04:17:50;;;;;;;25.53;17.70;;;6.90;99.90;;;;;;5094914;28;20953;-75
2021/04/05 04:20:19;;;;;;;22.93;16.70;;;6.90;99.90;;;;;;5092305;28;20487;-76
2021/04/05 04:22:48;;;;;;;28.23;17.20;;;7.00;99.90;;;;;;5087255;28;20433;-76
2021/04/05 04:25:16;;;;;;;20.90;16.83;;;7.00;99.90;;;;;;5096096;28;20463;-75
2021/04/05 04:27:45;;;;;;;22.60;17.97;;;6.90;99.90;;;;;;5095788;28;20551;-75
2021/04/05 04:30:31;;;;;;;24.23;16.73;;;7.00;99.90;;;;;;5094458;28;20479;-76
2021/04/05 04:33:00;;;;;;;25.40;17.47;;;7.00;99.90;;;;;;5088063;28;20468;-75
2021/04/05 04:35:29;;;;;;;21.10;15.70;;;7.00;99.90;;;;;;5074324;28;20498;-75
2021/04/05 04:37:57;;;;;;;22.00;15.70;;;7.00;99.90;;;;;;5075349;28;20437;-75
2021/04/05 04:40:26;;;;;;;20.60;15.13;;;6.90;99.90;;;;;;5075291;28;20460;-76
2021/04/05 04:42:56;;;;;;;13.27;10.20;;;6.90;99.90;;;;;;5074198;28;20864;-75
2021/04/05 04:45:24;;;;;;;8.40;6.07;;;6.90;99.90;;;;;;5075352;28;20479;-74
2021/04/05 04:47:52;;;;;;;7.30;4.90;;;6.90;99.90;;;;;;5075313;28;20932;-74
2021/04/05 04:50:20;;;;;;;6.67;4.30;;;6.80;99.90;;;;;;5075965;28;20989;-75
2021/04/05 04:52:49;;;;;;;9.90;5.53;;;6.70;99.90;;;;;;5093746;28;20806;-75
2021/04/05 04:55:17;;;;;;;6.27;4.70;;;6.70;99.90;;;;;;5093646;28;20466;-76
2021/04/05 04:57:45;;;;;;;7.77;3.87;;;6.60;99.90;;;;;;5093555;28;21021;-76
2021/04/05 05:00:13;;;;;;;5.70;3.67;;;6.60;99.90;;;;;;5083688;28;20522;-75
2021/04/05 05:02:42;;;;;;;2.50;2.00;;;6.50;99.90;;;;;;5073234;28;20472;-75
2021/04/05 05:05:12;;;;;;;7.70;1.83;;;6.50;99.90;;;;;;5074705;28;20532;-75
2021/04/05 05:07:40;;;;;;;3.10;1.40;;;6.40;99.90;;;;;;5086770;28;20498;-75
2021/04/05 05:10:11;;;;;;;2.80;1.03;;;6.30;99.90;;;;;;5094742;28;20468;-76
2021/04/05 05:12:39;;;;;;;2.37;1.00;;;6.20;99.90;;;;;;5069861;28;20446;-76
2021/04/05 05:15:08;;;;;;;2.30;0.83;;;6.00;99.90;;;;;;5053662;28;20434;-75
2021/04/05 05:17:40;;;;;;;1.47;0.90;;;5.90;99.90;;;;;;5054357;28;20446;-75
2021/04/05 05:20:08;;;;;;;1.70;1.10;;;5.80;99.90;;;;;;5054627;28;20446;-75
2021/04/05 05:22:39;;;;;;;1.30;0.80;;;5.80;99.90;;;;;;5069031;28;20448;-76
2021/04/05 05:25:10;;;;;;;1.87;0.80;;;5.70;99.90;;;;;;5073056;28;20939;-75
2021/04/05 05:27:42;;;;;;;2.13;0.93;;;5.60;99.90;;;;;;5072804;28;20453;-76
2021/04/05 05:30:20;;;;;;;1.37;0.97;;;5.60;99.90;;;;;;5072798;28;20473;-75
2021/04/05 05:32:48;;;;;;;3.13;0.90;;;5.50;99.90;;;;;;5086534;28;20448;-75
2021/04/05 05:35:17;;;;;;;2.60;1.00;;;5.50;99.90;;;;;;5094229;28;20459;-75
2021/04/05 05:37:44;;;;;;;5.20;1.25;;;5.40;99.90;;;;;;5094120;28;20424;-75
2021/04/05 05:40:18;;;;;;;3.37;1.30;;;5.40;99.90;;;;;;5094074;28;20206;-76
2021/04/05 05:43:05;;;;;;;3.63;1.60;;;5.30;99.90;;;;;;5092908;28;20506;-76
2021/04/05 05:45:41;;;;;;;1.90;1.00;;;5.30;99.90;;;;;;5092834;28;20966;-75
2021/04/05 05:48:19;;;;;;;1.83;0.82;;;5.20;99.90;;;;;;5091549;28;20448;-76
2021/04/05 05:50:54;;;;;;;3.13;1.43;;;5.30;99.90;;;;;;5093234;28;20247;-76
2021/04/05 05:53:38;;;;;;;2.50;1.30;;;5.30;99.90;;;;;;5072539;28;20445;-75
2021/04/05 05:56:18;;;;;;;2.43;1.00;;;5.20;99.90;;;;;;5072419;28;20833;-75
2021/04/05 05:58:50;;;;;;;3.00;1.10;;;5.20;99.90;;;;;;5072486;28;20973;-75
2021/04/05 06:01:26;;;;;;;2.00;0.80;;;5.10;99.90;;;;;;5072431;28;20502;-75
2021/04/05 06:03:59;;;;;;;2.93;1.40;;;5.00;99.90;;;;;;5073265;28;20437;-75
2021/04/05 06:06:37;;;;;;;3.43;0.97;;;4.90;99.90;;;;;;5072244;28;20450;-75
2021/04/05 06:09:12;;;;;;;3.23;0.90;;;4.80;99.90;;;;;;5080428;28;20476;-75
2021/04/05 06:11:54;;;;;;;3.10;1.03;;;4.70;99.90;;;;;;5092397;28;20472;-75
2021/04/05 06:14:35;;;;;;;3.07;0.70;;;4.60;99.90;;;;;;5093692;28;20416;-74
2021/04/05 06:17:13;;;;;;;2.03;0.80;;;4.50;99.90;;;;;;5093877;28;20427;-74
2021/04/05 06:19:47;;;;;;;1.80;0.90;;;4.50;99.90;;;;;;5092316;28;20496;-75
2021/04/05 06:22:32;;;;;;;1.40;0.90;;;4.50;99.90;;;;;;5092321;28;20446;-75
2021/04/05 06:25:07;;;;;;;1.83;1.07;;;4.40;99.90;;;;;;5092311;28;20444;-75
2021/04/05 06:27:42;;;;;;;2.77;0.90;;;4.40;99.90;;;;;;5093564;28;20500;-75
2021/04/05 06:30:16;;;;;;;4.43;0.80;;;4.40;99.90;;;;;;5093443;28;21041;-75
2021/04/05 06:32:54;;;;;;;2.50;1.10;;;4.40;99.90;;;;;;5092252;28;20482;-75
2021/04/05 06:36:00;;;;;;;1.30;0.70;;;4.40;99.90;;;;;;5092215;28;20933;-76
2021/04/05 06:38:34;;;;;;;2.17;1.43;;;4.40;99.90;;;;;;5061166;28;20993;-75
2021/04/05 06:41:22;;;;;;;1.40;0.70;;;4.30;99.90;;;;;;5079152;28;20463;-75
2021/04/05 06:44:11;;;;;;;3.83;1.30;;;4.40;99.90;;;;;;5093569;28;20471;-75
2021/04/05 06:47:00;;;;;;;2.43;1.23;;;4.40;99.90;;;;;;5098167;28;20424;-75
2021/04/05 06:50:00;;;;;;;5.83;1.20;;;4.40;99.90;;;;;;5088158;28;20476;-75
2021/04/05 06:52:43;;;;;;;2.80;0.80;;;4.40;99.90;;;;;;5077606;28;20461;-75
2021/04/05 06:55:27;;;;;;;2.73;1.07;;;4.40;99.90;;;;;;5077610;28;20423;-75
2021/04/05 06:58:12;;;;;;;3.50;0.80;;;4.40;99.90;;;;;;5076809;28;20532;-75
2021/04/05 07:00:54;;;;;;;2.53;1.10;;;4.40;99.90;;;;;;5077314;28;20910;-75
2021/04/05 07:03:49;;;;;;;2.73;1.40;;;4.40;99.90;;;;;;5090932;28;20447;-75
2021/04/05 07:06:46;;;;;;;5.13;1.13;;;4.40;99.90;;;;;;5096986;28;20440;-74
2021/04/05 07:09:22;;;;;;;4.60;1.47;;;4.30;99.90;;;;;;5051764;28;21013;-75
2021/04/05 07:12:20;;;;;;;4.10;1.20;;;4.30;99.90;;;;;;5080405;28;20541;-75
2021/04/05 07:14:57;;;;;;;4.00;1.37;;;4.20;99.90;;;;;;5060039;28;20553;-75
2021/04/05 07:17:35;;;;;;;2.70;1.37;;;4.10;99.90;;;;;;5077001;28;20474;-75
2021/04/05 07:20:12;;;;;;;3.97;1.60;;;4.10;99.90;;;;;;5076842;28;20456;-75
2021/04/05 07:22:54;;;;;;;4.63;1.60;;;4.00;99.90;;;;;;5093306;28;20463;-76
2021/04/05 07:25:26;;;;;;;4.50;1.60;;;4.00;99.90;;;;;;5076369;28;20502;-75
2021/04/05 07:28:06;;;;;;;2.00;1.40;;;4.00;99.90;;;;;;5095252;28;20508;-75
2021/04/05 07:30:41;;;;;;;4.00;1.20;;;4.00;99.90;;;;;;5095277;28;20837;-75
2021/04/05 07:33:24;;;;;;;3.17;1.10;;;4.00;99.90;;;;;;5096637;28;20416;-75
2021/04/05 07:36:00;;;;;;;6.80;1.53;;;4.10;99.90;;;;;;5095351;28;20486;-76
2021/04/05 07:38:40;;;;;;;7.10;2.20;;;4.20;99.90;;;;;;5095243;28;20460;-76
2021/04/05 07:41:24;;;;;;;3.33;1.73;;;4.30;99.90;;;;;;5088076;28;20463;-76
2021/04/05 07:44:25;;;;;;;5.30;1.70;;;4.40;99.90;;;;;;5089598;28;20941;-76
2021/04/05 07:47:00;;;;;;;6.43;1.70;;;4.50;99.90;;;;;;5068643;28;20467;-76
2021/04/05 07:49:48;;;;;;;3.83;1.60;;;4.50;99.90;;;;;;5075063;28;20489;-75
2021/04/05 07:52:22;;;;;;;8.37;1.60;;;4.50;99.90;;;;;;5086219;28;20453;-76
2021/04/05 07:54:51;;;;;;;6.18;1.70;;;4.50;99.90;;;;;;5073605;28;20446;-75
2021/04/05 07:57:27;;;;;;;3.53;1.00;;;4.60;99.90;;;;;;5075638;28;20217;-75
2021/04/05 08:00:05;;;;;;;1.50;0.70;;;4.60;99.90;;;;;;5074743;28;21092;-75
2021/04/05 08:02:43;;;;;;;3.30;0.90;;;4.30;99.90;;;;;;5076723;28;20418;-75
2021/04/05 08:05:21;;;;;;;2.23;0.70;;;3.90;99.90;;;;;;5075428;28;20529;-75
2021/04/05 08:08:14;;;;;;;4.80;1.00;;;3.60;99.90;;;;;;5087173;28;20497;-75
2021/04/05 08:10:55;;;;;;;3.83;1.13;;;3.40;99.90;;;;;;5093951;28;20468;-75
2021/04/05 08:13:35;;;;;;;3.37;1.00;;;3.40;99.90;;;;;;5076767;28;20443;-75
2021/04/05 08:16:13;;;;;;;2.03;1.00;;;3.40;99.90;;;;;;5074521;28;20544;-75
2021/04/05 08:18:50;;;;;;;6.47;1.83;;;3.50;99.90;;;;;;5074355;28;20497;-75
2021/04/05 08:21:23;;;;;;;6.87;1.37;;;3.80;99.90;;;;;;5076030;28;20487;-77
2021/04/05 08:24:09;;;;;;;4.07;1.50;;;4.10;99.90;;;;;;5071768;28;20494;-77
2021/04/05 08:26:43;;;;;;;4.90;1.23;;;4.30;99.90;;;;;;5087372;28;20444;-76
2021/04/05 08:29:17;;;;;;;7.40;1.70;;;4.40;99.90;;;;;;5094769;28;20567;-76
2021/04/05 08:32:00;;;;;;;5.53;1.90;;;4.50;99.90;;;;;;5095402;28;20856;-76
2021/04/05 08:34:52;;;;;;;3.93;1.37;;;4.50;99.90;;;;;;5095592;28;20832;-76
2021/04/05 08:37:28;;;;;;;3.87;1.03;;;4.40;99.90;;;;;;5076216;28;20441;-76
2021/04/05 08:40:06;;;;;;;4.80;1.53;;;4.20;99.90;;;;;;5075163;28;20452;-76
2021/04/05 08:42:44;;;;;;;2.80;1.40;;;4.00;99.90;;;;;;5073753;28;20441;-76
2021/04/05 08:45:16;;;;;;;2.80;1.00;;;3.60;99.90;;;;;;5075267;28;20506;-76
2021/04/05 08:47:48;;;;;;;5.00;1.43;;;3.40;99.90;;;;;;5082021;28;20441;-76
2021/04/05 08:50:21;;;;;;;4.57;1.20;;;3.10;99.90;;;;;;5085373;28;20473;-76
2021/04/05 08:52:56;;;;;;;4.13;1.30;;;3.00;99.90;;;;;;5093831;28;20440;-76
2021/04/05 08:55:32;;;;;;;4.20;2.03;;;2.90;99.90;;;;;;5093850;28;20431;-76
2021/04/05 08:58:05;;;;;;;6.50;1.60;;;2.80;99.90;;;;;;5094008;28;20446;-77
2021/04/05 09:00:38;;;;;;;5.77;1.27;;;2.80;99.90;;;;;;5093946;28;20494;-76
2021/04/05 09:03:11;;;;;;;2.90;1.57;;;2.80;99.90;;;;;;5084444;28;20453;-76
2021/04/05 09:05:42;;;;;;;5.20;1.37;;;2.80;99.90;;;;;;5074850;28;20461;-76
2021/04/05 09:08:22;;;;;;;5.70;1.80;;;2.70;99.90;;;;;;5074020;28;20854;-76
2021/04/05 09:10:52;;;;;;;6.27;1.70;;;2.60;99.90;;;;;;5072890;28;20519;-76
2021/04/05 09:13:28;;;;;;;4.70;1.90;;;2.50;99.90;;;;;;5073202;28;20451;-76
2021/04/05 09:16:46;;;;;;;4.07;1.67;;;2.50;99.90;;;;;;5075099;28;20774;-76
2021/04/05 09:19:52;;;;;;;8.00;1.80;;;2.50;99.90;;;;;;5091901;28;20475;-76
2021/04/05 09:22:52;;;;;;;9.70;2.20;;;2.60;99.90;;;;;;5093385;28;20436;-76
2021/04/05 09:25:46;;;;;;;6.73;1.77;;;2.70;99.90;;;;;;5094017;28;20420;-76
2021/04/05 09:28:35;;;;;;;5.10;2.30;;;2.90;99.90;;;;;;5080178;28;20964;-76
2021/04/05 09:31:41;;;;;;;6.07;2.50;;;3.00;99.90;;;;;;5094692;28;20456;-76
2021/04/05 09:34:39;;;;;;;10.43;3.30;;;3.20;99.90;;;;;;5094976;28;20470;-76
2021/04/05 09:37:36;;;;;;;11.53;2.23;;;3.20;99.90;;;;;;5094427;28;20440;-76
2021/04/05 09:40:17;;;;;;;9.03;3.00;;;3.20;99.90;;;;;;5092997;28;20494;-76
2021/04/05 09:43:25;;;;;;;5.43;1.67;;;3.30;99.90;;;;;;5095686;28;20502;-75
2021/04/05 09:46:06;;;;;;;5.63;2.57;;;3.40;99.90;;;;;;5085935;28;20622;-75
2021/04/05 09:48:50;;;;;;;7.00;2.07;;;3.50;99.90;;;;;;5080603;28;20535;-76
2021/04/05 09:51:46;;;;;;;7.07;1.90;;;3.50;99.90;;;;;;5091543;28;20877;-75
2021/04/05 09:54:25;;;;;;;5.87;1.80;;;3.40;99.90;;;;;;5023386;28;20451;-75
2021/04/05 09:56:57;;;;;;;6.83;1.90;;;3.30;99.90;;;;;;5076952;28;20524;-75
2021/04/05 09:59:41;;;;;;;4.87;1.50;;;3.20;99.90;;;;;;5072615;28;20519;-75
2021/04/05 10:02:15;;;;;;;3.67;1.60;;;3.10;99.90;;;;;;5074202;28;20834;-75
2021/04/05 10:04:46;;;;;;;3.72;1.52;;;3.00;99.90;;;;;;5083244;28;20449;-75
2021/04/05 10:07:15;;;;;;;6.50;2.80;;;3.00;99.90;;;;;;5093952;28;20184;-75
2021/04/05 10:09:47;;;;;;;6.90;1.50;;;3.10;99.90;;;;;;5092718;28;20479;-75
2021/04/05 10:12:21;;;;;;;6.20;1.40;;;3.10;99.90;;;;;;5094077;28;20979;-75
2021/04/05 10:15:04;;;;;;;6.13;1.80;;;3.20;99.90;;;;;;5091498;28;20455;-75
2021/04/05 10:17:41;;;;;;;5.90;1.50;;;3.40;99.90;;;;;;5093956;28;20456;-75
2021/04/05 10:20:10;;;;;;;2.80;1.30;;;3.50;99.90;;;;;;5091662;28;20468;-76
2021/04/05 10:22:46;;;;;;;4.37;2.03;;;3.60;99.90;;;;;;5073958;28;20806;-75
2021/04/05 10:25:26;;;;;;;8.47;2.10;;;3.80;99.90;;;;;;5082305;28;20448;-75
2021/04/05 10:28:15;;;;;;;3.03;1.20;;;3.90;99.90;;;;;;5093469;28;20490;-76
2021/04/05 10:30:53;;;;;;;5.33;1.70;;;4.00;99.90;;;;;;5093554;28;20469;-75
2021/04/05 10:33:25;;;;;;;6.47;1.47;;;4.10;99.90;;;;;;5093948;28;20913;-75
2021/04/05 10:35:57;;;;;;;12.10;2.30;;;4.20;99.90;;;;;;5078156;28;20453;-75
2021/04/05 10:38:24;;;;;;;3.70;1.90;;;4.30;99.90;;;;;;5073554;28;20515;-75
2021/04/05 10:40:53;;;;;;;8.17;1.90;;;4.50;99.90;;;;;;5073294;28;20472;-75
2021/04/05 10:43:26;;;;;;;7.73;1.90;;;4.60;99.90;;;;;;5074480;28;20536;-75
2021/04/05 10:46:05;;;;;;;5.10;2.10;;;4.70;99.90;;;;;;5073308;28;20942;-75
2021/04/05 10:48:43;;;;;;;7.10;1.87;;;4.70;99.90;;;;;;5073109;28;20506;-75
2021/04/05 10:51:26;;;;;;;7.47;2.70;;;4.80;99.20;;;;;;5075097;28;20457;-76
2021/04/05 10:54:04;;;;;;;8.00;3.20;;;4.80;99.40;;;;;;5072704;28;20442;-75
2021/04/05 10:56:37;;;;;;;9.70;2.60;;;4.80;99.40;;;;;;5073798;28;20873;-75
2021/04/05 10:59:10;;;;;;;4.50;1.50;;;4.60;99.20;;;;;;5073102;28;20495;-74
2021/04/05 11:01:46;;;;;;;6.97;2.33;;;4.40;99.30;;;;;;5073290;28;20429;-75
2021/04/05 11:04:18;;;;;;;4.50;2.13;;;4.30;99.20;;;;;;5052984;28;20419;-74
2021/04/05 11:06:51;;;;;;;7.97;1.93;;;4.10;99.00;;;;;;5071342;28;20463;-74
2021/04/05 11:09:20;;;;;;;7.20;1.33;;;4.10;98.40;;;;;;5073424;28;20457;-74
2021/04/05 11:11:52;;;;;;;2.37;1.10;;;4.00;98.30;;;;;;5072764;28;20508;-74
2021/04/05 11:14:23;;;;;;;3.00;1.20;;;3.90;98.30;;;;;;5072965;28;20425;-74
2021/04/05 11:16:57;;;;;;;5.00;1.37;;;3.70;98.10;;;;;;5073240;28;20414;-74
2021/04/05 11:19:31;;;;;;;4.30;1.20;;;3.50;98.00;;;;;;5073683;28;20459;-74
2021/04/05 11:22:00;;;;;;;4.73;1.23;;;3.20;98.00;;;;;;5073630;28;20417;-74
2021/04/05 11:24:37;;;;;;;2.00;0.90;;;3.00;98.10;;;;;;5079208;28;20502;-75
2021/04/05 11:27:10;;;;;;;5.87;1.53;;;2.90;98.30;;;;;;5093017;28;20462;-75
2021/04/05 11:29:42;;;;;;;3.90;0.93;;;2.80;98.50;;;;;;5093496;28;20479;-75
2021/04/05 11:32:15;;;;;;;4.10;1.30;;;2.70;98.50;;;;;;5097040;28;20502;-75
2021/04/05 11:34:44;;;;;;;4.27;1.47;;;2.70;98.30;;;;;;5095961;28;20489;-75
2021/04/05 11:37:14;;;;;;;3.80;1.10;;;2.70;98.10;;;;;;5097565;28;20451;-75
2021/04/05 11:39:46;;;;;;;5.23;1.90;;;2.80;98.20;;;;;;5097346;28;20452;-75
2021/04/05 11:42:15;;;;;;;2.53;1.13;;;2.90;98.10;;;;;;5096718;28;20478;-77
2021/04/05 11:44:50;;;;;;;4.00;0.90;;;3.10;98.10;;;;;;5077057;28;20914;-76
2021/04/05 11:47:20;;;;;;;2.30;0.97;;;3.20;97.60;;;;;;5082732;28;20940;-76
2021/04/05 11:49:48;;;;;;;3.40;0.90;;;3.30;97.60;;;;;;5099987;28;20452;-76
2021/04/05 11:52:19;;;;;;;2.13;0.90;;;3.40;97.70;;;;;;5098091;28;20594;-74
2021/04/05 11:54:52;;;;;;;2.73;1.30;;;3.50;97.10;;;;;;5096946;28;20458;-74
2021/04/05 11:57:26;;;;;;;3.70;1.40;;;3.60;96.90;;;;;;5096872;28;20902;-74
2021/04/05 12:00:00;;;;;;;7.93;1.23;;;3.80;97.00;;;;;;5096523;28;20572;-74
2021/04/05 12:02:35;;;;;;;2.90;1.20;;;3.90;96.70;;;;;;5096479;28;20420;-74
2021/04/05 12:05:06;;;;;;;1.67;0.90;;;4.00;96.20;;;;;;5095667;28;20489;-75
2021/04/05 12:07:57;;;;;;;4.10;1.13;;;4.10;95.80;;;;;;5076376;28;20445;-76
2021/04/05 12:10:29;;;;;;;6.60;1.30;;;4.10;95.50;;;;;;5076061;28;20460;-76
2021/04/05 12:13:03;;;;;;;4.23;1.20;;;4.30;95.60;;;;;;5098121;28;20419;-75
2021/04/05 12:15:31;;;;;;;5.47;1.10;;;4.40;95.60;;;;;;5095442;28;20974;-75
2021/04/05 12:18:01;;;;;;;5.23;1.90;;;4.50;95.50;;;;;;5095010;28;20437;-75
2021/04/05 12:20:33;;;;;;;2.57;1.40;;;4.50;94.90;;;;;;5092545;28;20445;-74
2021/04/05 12:23:04;;;;;;;4.67;1.53;;;4.50;94.30;;;;;;5087326;28;20506;-78
2021/04/05 12:25:36;;;;;;;3.08;1.13;;;4.60;94.30;;;;;;5095499;28;20432;-77
2021/04/05 12:28:06;;;;;;;3.47;1.20;;;4.80;92.70;;;;;;5067617;28;20625;-76
2021/04/05 12:30:34;;;;;;;6.73;2.30;;;4.90;92.70;;;;;;5087473;28;20946;-77
2021/04/05 12:33:06;;;;;;;3.10;1.13;;;5.00;93.50;;;;;;5092018;28;20441;-76
2021/04/05 12:35:53;;;;;;;4.45;1.30;;;5.00;94.00;;;;;;5094312;28;20445;-76
2021/04/05 12:38:31;;;;;;;4.77;2.07;;;5.10;94.80;;;;;;5087409;28;20241;-76
2021/04/05 12:41:02;;;;;;;3.97;1.27;;;5.00;95.00;;;;;;5074774;28;20491;-75
2021/04/05 12:43:31;;;;;;;4.30;1.00;;;4.70;95.20;;;;;;5074083;28;20484;-75
2021/04/05 12:46:02;;;;;;;2.40;0.97;;;4.60;95.10;;;;;;5074259;28;20893;-75
2021/04/05 12:48:32;;;;;;;4.30;1.10;;;4.30;94.90;;;;;;5075996;28;20449;-75
2021/04/05 12:51:04;;;;;;;6.00;2.10;;;4.20;94.90;;;;;;5074555;28;20508;-75
2021/04/05 12:53:34;;;;;;;2.60;1.23;;;4.10;95.00;;;;;;5076142;28;20763;-75
2021/04/05 12:56:04;;;;;;;4.70;1.67;;;4.00;95.10;;;;;;5080469;28;20457;-75
2021/04/05 12:58:34;;;;;;;3.93;1.07;;;4.00;95.20;;;;;;5094100;28;20900;-75
2021/04/05 13:01:04;;;;;;;4.53;1.83;;;3.90;95.00;;;;;;5092439;28;20531;-75
2021/04/05 13:03:36;;;;;;;4.53;1.37;;;3.90;95.00;;;;;;5093807;28;20497;-75
2021/04/05 13:06:08;;;;;;;5.47;1.67;;;4.00;95.10;;;;;;5097122;28;20416;-75
2021/04/05 13:08:43;;;;;;;8.03;1.70;;;4.00;95.10;;;;;;5095179;28;20456;-74
2021/04/05 13:11:20;;;;;;;3.40;1.50;;;4.20;95.10;;;;;;5086887;28;20529;-74
2021/04/05 13:13:50;;;;;;;3.60;1.90;;;4.30;95.20;;;;;;5075505;28;20528;-76
2021/04/05 13:16:27;;;;;;;3.63;1.63;;;4.40;95.20;;;;;;5075227;28;20471;-75
2021/04/05 13:19:02;;;;;;;6.43;1.80;;;4.60;95.40;;;;;;5073366;28;20461;-75
2021/04/05 13:21:36;;;;;;;3.50;1.53;;;4.70;95.50;;;;;;5073536;28;20437;-75
2021/04/05 13:24:08;;;;;;;4.23;1.67;;;4.90;95.80;;;;;;5075196;28;20433;-75
2021/04/05 13:26:40;;;;;;;4.00;1.93;;;5.10;95.30;;;;;;5074451;28;20453;-75